Terminal Aerodrome Forecast
Issued by NWS

Current Version | Previous Version | Text Only | Print | Product List | Glossary On
Versions: 1 2 3 4 5 6 7 8 9 10 11 12 13 14 15 16 17 18 19 20 21 22 23 24 25 26 27
000
FTUS41 KOKX 020129 AAA
TAFGON
TAF AMD
KGON 020129Z 0201/0224 05007KT 6SM -RA BR BKN006
     FM020300 06007KT 1SM BR OVC004
     FM020800 03006KT 1SM BR OVC004
     FM021500 VRB06KT 1SM BR OVC004
     FM021800 VRB06KT 4SM BR OVC006
     FM022000 VRB06KT 4SM BR OVC008=

USA.gov is the U.S. government's official web portal to all federal, state and local government web resources and services.